Time;durP1;ratioP1;P1;durP2;ratioP2;P2;SDS_P1;SDS_P2;PMS_P1;PMS_P2;Temp;Humidity;BMP_temperature;BMP_pressure;BME280_temperature;BME280_humidity;BME280_pressure;Samples;Min_cycle;Max_cycle;Signal;HPM_P1;HPM_P2
2023/07/02 00:00:18;;;;;;;7.82;2.88;;;19.20;99.90;;;;;;4178294;28;20048;-60
2023/07/02 00:02:19;;;;;;;6.85;2.50;;;19.20;99.90;;;;;;4184322;28;20499;-60
2023/07/02 00:04:20;;;;;;;4.80;2.25;;;19.10;99.90;;;;;;4177997;28;20037;-60
2023/07/02 00:06:21;;;;;;;4.75;2.35;;;19.10;99.90;;;;;;4177191;28;20082;-60
2023/07/02 00:08:22;;;;;;;4.35;2.60;;;19.10;99.90;;;;;;4179822;28;20052;-60
2023/07/02 00:10:23;;;;;;;4.28;2.80;;;19.10;99.90;;;;;;4176206;28;20369;-60
2023/07/02 00:12:23;;;;;;;7.43;2.97;;;19.10;99.90;;;;;;4182365;28;20106;-60
2023/07/02 00:14:24;;;;;;;5.18;2.63;;;19.10;99.90;;;;;;4181998;28;20447;-60
2023/07/02 00:16:24;;;;;;;3.88;2.70;;;19.00;99.90;;;;;;4177059;28;20033;-60
2023/07/02 00:18:33;;;;;;;6.43;3.35;;;19.00;99.90;;;;;;4178001;28;20029;-60
2023/07/02 00:20:37;;;;;;;5.95;3.10;;;19.00;99.90;;;;;;4180970;28;20513;-60
2023/07/02 00:22:38;;;;;;;6.50;2.95;;;19.00;99.90;;;;;;4180744;28;20489;-61
2023/07/02 00:24:38;;;;;;;5.68;2.60;;;19.00;99.90;;;;;;4178156;28;20041;-61
2023/07/02 00:26:40;;;;;;;5.38;2.85;;;19.00;99.90;;;;;;4184268;28;20091;-60
2023/07/02 00:28:41;;;;;;;4.72;2.75;;;19.00;99.90;;;;;;4179091;28;20061;-64
2023/07/02 00:30:41;;;;;;;8.38;3.90;;;19.00;99.90;;;;;;4183196;28;20507;-62
2023/07/02 00:32:42;;;;;;;5.00;2.78;;;18.90;99.90;;;;;;4177382;28;20025;-61
2023/07/02 00:34:42;;;;;;;5.72;2.90;;;18.90;99.90;;;;;;4183229;28;20102;-60
2023/07/02 00:36:43;;;;;;;6.95;3.28;;;18.80;99.90;;;;;;4183332;28;20072;-60
2023/07/02 00:38:48;;;;;;;7.93;3.45;;;18.90;99.90;;;;;;4185136;28;20033;-60
2023/07/02 00:40:49;;;;;;;9.82;3.28;;;18.80;99.90;;;;;;4178047;28;20065;-60
2023/07/02 00:42:49;;;;;;;5.18;2.55;;;18.80;99.90;;;;;;4172144;28;20037;-60
2023/07/02 00:44:52;;;;;;;7.28;3.33;;;18.80;99.90;;;;;;4179419;28;20063;-60
2023/07/02 00:46:52;;;;;;;6.53;3.55;;;18.80;99.90;;;;;;4177717;28;20090;-60
2023/07/02 00:48:55;;;;;;;5.85;2.95;;;18.80;99.90;;;;;;4177105;28;20079;-60
2023/07/02 00:50:56;;;;;;;7.50;3.67;;;18.80;99.90;;;;;;4171980;28;20029;-60
2023/07/02 00:52:57;;;;;;;5.82;3.08;;;18.80;99.90;;;;;;4178576;28;20037;-60
2023/07/02 00:54:58;;;;;;;7.28;3.40;;;18.70;99.90;;;;;;4184576;28;20124;-60
2023/07/02 00:57:02;;;;;;;10.02;4.10;;;18.70;99.90;;;;;;4177544;28;20496;-60
2023/07/02 00:59:02;;;;;;;4.93;3.05;;;18.70;99.90;;;;;;4183388;28;20040;-60
2023/07/02 01:01:03;;;;;;;8.75;4.05;;;18.70;99.90;;;;;;4173526;28;20489;-60
2023/07/02 01:03:04;;;;;;;7.63;3.05;;;18.70;99.90;;;;;;4176099;28;20032;-60
2023/07/02 01:05:05;;;;;;;6.50;3.42;;;18.70;99.90;;;;;;4172169;28;20029;-61
2023/07/02 01:07:11;;;;;;;7.68;3.75;;;18.70;99.90;;;;;;4176657;28;20519;-60
2023/07/02 01:09:11;;;;;;;7.15;3.38;;;18.60;99.90;;;;;;4174970;28;21017;-63
2023/07/02 01:11:12;;;;;;;5.30;3.40;;;18.60;99.90;;;;;;4174324;28;21043;-61
2023/07/02 01:13:19;;;;;;;10.13;4.25;;;18.50;99.90;;;;;;4176633;28;20488;-60
2023/07/02 01:15:19;;;;;;;8.30;3.97;;;18.50;99.90;;;;;;4180758;28;20033;-60
2023/07/02 01:17:22;;;;;;;10.00;5.07;;;18.50;99.90;;;;;;4181463;28;21007;-60
2023/07/02 01:19:58;;;;;;;7.57;4.10;;;18.40;99.90;;;;;;4183932;28;20029;-60
2023/07/02 01:21:59;;;;;;;13.50;4.57;;;18.50;99.90;;;;;;4168682;28;20029;-60
2023/07/02 01:24:01;;;;;;;9.98;4.97;;;18.50;99.90;;;;;;4180867;28;20490;-60
2023/07/02 01:26:01;;;;;;;9.30;4.87;;;18.40;99.90;;;;;;4175345;28;20032;-60
2023/07/02 01:28:03;;;;;;;8.40;4.53;;;18.40;99.90;;;;;;4176697;28;20025;-60
2023/07/02 01:30:04;;;;;;;11.15;4.88;;;18.30;99.90;;;;;;4172677;28;20029;-61
2023/07/02 01:32:05;;;;;;;9.35;4.30;;;18.30;99.90;;;;;;4171951;28;20108;-60
2023/07/02 01:34:07;;;;;;;9.60;4.97;;;18.40;99.90;;;;;;4178893;28;20060;-60
2023/07/02 01:36:08;;;;;;;8.98;5.03;;;18.40;99.90;;;;;;4176171;28;20577;-61
2023/07/02 01:38:09;;;;;;;9.75;5.00;;;18.30;99.90;;;;;;4178217;28;20024;-60
2023/07/02 01:40:10;;;;;;;12.60;5.68;;;18.30;99.90;;;;;;4176801;28;20036;-60
2023/07/02 01:42:16;;;;;;;9.85;5.38;;;18.30;99.90;;;;;;4178634;28;20025;-60
2023/07/02 01:44:17;;;;;;;9.25;4.82;;;18.40;99.90;;;;;;4170828;28;20116;-60
2023/07/02 01:46:18;;;;;;;12.68;5.47;;;18.40;99.90;;;;;;4182489;28;20029;-60
2023/07/02 01:48:19;;;;;;;10.32;5.13;;;18.30;99.90;;;;;;4179687;28;20123;-60
2023/07/02 01:50:19;;;;;;;16.38;6.72;;;18.40;99.90;;;;;;4183257;28;20029;-60
2023/07/02 01:52:20;;;;;;;16.85;6.40;;;18.30;99.90;;;;;;4177295;28;20174;-60
2023/07/02 01:54:24;;;;;;;19.10;7.53;;;18.30;99.90;;;;;;4178432;28;20045;-60
2023/07/02 01:56:25;;;;;;;13.90;6.65;;;18.30;99.90;;;;;;4176388;28;20043;-60
2023/07/02 01:58:25;;;;;;;13.25;6.78;;;18.20;99.90;;;;;;4175819;28;20036;-60
2023/07/02 02:00:26;;;;;;;12.98;6.32;;;18.20;99.90;;;;;;4179986;28;21038;-60
2023/07/02 02:02:26;;;;;;;9.85;5.88;;;18.20;99.90;;;;;;4183329;28;22119;-60
2023/07/02 02:04:27;;;;;;;15.07;7.63;;;18.30;99.90;;;;;;4177807;28;20033;-60
2023/07/02 02:06:28;;;;;;;13.35;6.78;;;18.30;99.90;;;;;;4168973;28;20380;-60
2023/07/02 02:08:28;;;;;;;16.77;7.38;;;18.30;99.90;;;;;;4174914;28;20570;-60
2023/07/02 02:10:29;;;;;;;18.30;7.03;;;18.30;99.90;;;;;;4172025;28;20032;-60
2023/07/02 02:12:30;;;;;;;13.38;7.22;;;18.20;99.90;;;;;;4175866;28;20032;-60
2023/07/02 02:14:30;;;;;;;13.02;7.18;;;18.20;99.90;;;;;;4175433;28;20137;-60
2023/07/02 02:16:33;;;;;;;16.15;7.85;;;18.30;99.90;;;;;;4174048;28;20064;-60
2023/07/02 02:18:34;;;;;;;;;;;18.30;99.90;;;;;;4178350;28;20043;-60
2023/07/02 02:20:36;;;;;;;16.42;8.40;;;18.30;99.90;;;;;;4160862;28;19909;-60
2023/07/02 02:22:36;;;;;;;16.23;7.75;;;18.20;99.90;;;;;;4181593;28;20492;-60
2023/07/02 02:24:37;;;;;;;15.45;7.97;;;18.20;99.90;;;;;;4176754;28;20028;-60
2023/07/02 02:26:37;;;;;;;22.50;8.13;;;18.30;99.90;;;;;;4178201;28;20120;-62
2023/07/02 02:28:38;;;;;;;13.10;7.95;;;18.30;99.90;;;;;;4183380;28;20036;-61
2023/07/02 02:30:39;;;;;;;17.83;8.25;;;18.30;99.90;;;;;;4178757;28;20033;-60
2023/07/02 02:32:39;;;;;;;17.13;9.15;;;18.30;99.90;;;;;;4178321;28;20037;-60
2023/07/02 02:34:40;;;;;;;18.65;8.55;;;18.20;99.90;;;;;;4179974;28;20040;-60
2023/07/02 02:36:40;;;;;;;16.35;9.18;;;18.20;99.90;;;;;;4177424;28;20036;-60
2023/07/02 02:38:41;;;;;;;20.00;8.63;;;18.20;99.90;;;;;;4181129;28;20039;-60
2023/07/02 02:40:42;;;;;;;16.70;8.18;;;18.20;99.90;;;;;;4183843;28;20542;-60
2023/07/02 02:42:42;;;;;;;18.40;8.77;;;18.30;99.90;;;;;;4157004;28;20045;-60
2023/07/02 02:44:43;;;;;;;20.00;8.95;;;18.30;99.90;;;;;;4181618;28;20041;-60
2023/07/02 02:46:43;;;;;;;22.30;9.77;;;18.20;99.90;;;;;;4176677;28;20086;-60
2023/07/02 02:48:44;;;;;;;17.83;9.00;;;18.20;99.90;;;;;;4177355;28;20037;-60
2023/07/02 02:50:45;;;;;;;19.17;9.10;;;18.20;99.90;;;;;;4158696;28;20053;-64
2023/07/02 02:52:46;;;;;;;20.63;9.82;;;18.20;99.90;;;;;;4177134;28;20037;-60
2023/07/02 02:54:46;;;;;;;17.75;8.77;;;18.20;99.90;;;;;;4173333;28;20573;-60
2023/07/02 02:56:47;;;;;;;18.75;9.40;;;18.20;99.90;;;;;;4177878;28;20381;-63
2023/07/02 02:58:48;;;;;;;21.40;9.10;;;18.20;99.90;;;;;;4160971;28;20029;-62
2023/07/02 03:00:49;;;;;;;16.90;8.95;;;18.20;99.90;;;;;;4149076;28;20463;-63
2023/07/02 03:02:49;;;;;;;18.77;9.35;;;18.20;99.90;;;;;;4180280;28;20112;-63
2023/07/02 03:04:50;;;;;;;19.98;9.95;;;18.20;99.90;;;;;;4176965;28;20025;-63
2023/07/02 03:06:52;;;;;;;18.70;9.73;;;18.20;99.90;;;;;;4179291;28;21202;-62
2023/07/02 03:08:53;;;;;;;17.95;9.05;;;18.20;99.90;;;;;;4180079;28;20047;-62
2023/07/02 03:10:54;;;;;;;19.38;8.90;;;18.20;99.90;;;;;;4181990;28;20040;-62
2023/07/02 03:12:54;;;;;;;21.60;10.05;;;18.30;99.90;;;;;;4174208;28;20056;-63
2023/07/02 03:14:55;;;;;;;21.52;9.93;;;18.20;99.90;;;;;;4181622;28;20091;-63
2023/07/02 03:16:55;;;;;;;16.23;8.55;;;18.20;99.90;;;;;;4175001;28;20068;-63
2023/07/02 03:18:56;;;;;;;18.08;9.23;;;18.20;99.90;;;;;;4179759;28;20033;-63
2023/07/02 03:20:57;;;;;;;18.83;9.85;;;18.20;99.90;;;;;;4177391;28;20025;-63
2023/07/02 03:22:58;;;;;;;20.20;10.30;;;18.20;99.90;;;;;;4178962;28;20084;-63
2023/07/02 03:24:58;;;;;;;19.95;10.85;;;18.20;99.90;;;;;;4176909;28;20511;-62
2023/07/02 03:26:59;;;;;;;26.30;11.45;;;18.20;99.90;;;;;;4179074;28;20044;-62
2023/07/02 03:28:59;;;;;;;25.08;10.52;;;18.20;99.90;;;;;;4176341;28;20029;-62
2023/07/02 03:31:00;;;;;;;22.75;10.00;;;18.10;99.90;;;;;;4175821;28;20044;-62
2023/07/02 03:33:00;;;;;;;21.85;10.20;;;18.10;99.90;;;;;;4184146;28;20039;-62
2023/07/02 03:35:01;;;;;;;19.80;10.20;;;18.10;99.90;;;;;;4177190;28;20366;-62
2023/07/02 03:37:02;;;;;;;33.03;11.57;;;18.10;99.90;;;;;;4169292;28;20326;-62
2023/07/02 03:39:03;;;;;;;20.17;10.13;;;18.10;99.90;;;;;;4155901;28;20057;-62
2023/07/02 03:41:04;;;;;;;19.20;10.40;;;18.10;99.90;;;;;;4172995;28;20025;-62
2023/07/02 03:43:04;;;;;;;18.70;10.15;;;18.10;99.90;;;;;;4179699;28;20029;-62
2023/07/02 03:45:05;;;;;;;17.15;10.05;;;18.10;99.90;;;;;;4172887;28;20033;-63
2023/07/02 03:47:08;;;;;;;18.33;11.10;;;18.10;99.90;;;;;;4174380;28;20644;-63
2023/07/02 03:49:08;;;;;;;23.23;11.20;;;18.20;99.90;;;;;;4176712;28;20088;-62
2023/07/02 03:51:09;;;;;;;24.25;12.35;;;18.10;99.90;;;;;;4182731;28;20423;-65
2023/07/02 03:53:10;;;;;;;24.85;10.57;;;18.10;99.90;;;;;;4183887;28;20041;-64
2023/07/02 03:55:10;;;;;;;19.02;10.07;;;18.10;99.90;;;;;;4167434;28;20076;-63
2023/07/02 03:57:11;;;;;;;17.80;10.20;;;18.10;99.90;;;;;;4168082;28;20033;-63
2023/07/02 03:59:11;;;;;;;20.73;9.80;;;18.20;99.90;;;;;;4173676;28;20067;-63
2023/07/02 04:01:12;;;;;;;20.70;11.15;;;18.10;99.90;;;;;;4173586;28;20519;-63
2023/07/02 04:03:13;;;;;;;22.33;11.68;;;18.20;99.90;;;;;;4174973;28;20037;-63
2023/07/02 04:05:13;;;;;;;18.58;10.40;;;18.20;99.90;;;;;;4171647;28;20074;-63
2023/07/02 04:07:14;;;;;;;19.98;10.30;;;18.20;99.90;;;;;;4169221;28;20025;-63
2023/07/02 04:09:14;;;;;;;23.15;12.02;;;18.20;99.90;;;;;;4184446;28;20025;-62
2023/07/02 04:11:15;;;;;;;19.02;10.25;;;18.20;99.90;;;;;;4180425;28;20033;-62
2023/07/02 04:13:15;;;;;;;29.58;12.20;;;18.20;99.90;;;;;;4185813;28;20369;-62
2023/07/02 04:15:16;;;;;;;20.75;11.60;;;18.10;99.90;;;;;;4177672;28;20056;-62
2023/07/02 04:17:17;;;;;;;24.25;12.15;;;18.10;99.90;;;;;;4181537;28;20026;-63
2023/07/02 04:19:17;;;;;;;22.48;11.32;;;18.10;99.90;;;;;;4175844;28;20033;-63
2023/07/02 04:21:18;;;;;;;25.90;12.75;;;18.10;99.90;;;;;;4184929;28;20036;-62
2023/07/02 04:23:18;;;;;;;22.60;11.48;;;18.10;99.90;;;;;;4183934;28;20048;-62
2023/07/02 04:25:19;;;;;;;24.00;13.07;;;18.10;99.90;;;;;;4167505;28;20030;-63
2023/07/02 04:27:20;;;;;;;22.10;11.75;;;18.10;99.90;;;;;;4151331;28;20029;-67
2023/07/02 04:29:20;;;;;;;22.92;12.40;;;18.10;99.90;;;;;;4158200;28;20026;-64
2023/07/02 04:31:21;;;;;;;28.00;12.88;;;18.10;99.90;;;;;;4159708;28;20030;-63
2023/07/02 04:33:22;;;;;;;21.15;12.60;;;18.20;99.90;;;;;;4166936;28;20041;-63
2023/07/02 04:35:23;;;;;;;28.55;12.70;;;18.20;99.90;;;;;;4170012;28;20045;-63
2023/07/02 04:37:23;;;;;;;25.42;12.82;;;18.20;99.90;;;;;;4174245;28;20442;-63
2023/07/02 04:39:24;;;;;;;19.65;11.05;;;18.20;99.90;;;;;;4175462;28;20392;-63
2023/07/02 04:41:24;;;;;;;27.67;13.10;;;18.20;99.90;;;;;;4172635;28;20078;-63
2023/07/02 04:43:25;;;;;;;21.08;11.20;;;18.20;99.90;;;;;;4169625;28;20500;-63
2023/07/02 04:45:31;;;;;;;29.00;13.20;;;18.20;99.90;;;;;;4167871;28;20036;-62
2023/07/02 04:47:32;;;;;;;29.90;13.13;;;18.20;99.90;;;;;;4167761;28;20099;-62
2023/07/02 04:49:33;;;;;;;26.13;12.98;;;18.20;99.90;;;;;;4168250;28;20030;-62
2023/07/02 04:51:33;;;;;;;29.13;13.80;;;18.20;99.90;;;;;;4170316;28;20029;-62
2023/07/02 04:53:34;;;;;;;26.30;12.95;;;18.20;99.90;;;;;;4172926;28;20495;-63
2023/07/02 04:55:34;;;;;;;23.15;11.88;;;18.20;99.90;;;;;;4168280;28;20111;-63
2023/07/02 04:57:35;;;;;;;24.05;12.57;;;18.20;99.90;;;;;;4168557;28;20102;-62
2023/07/02 04:59:36;;;;;;;23.60;12.40;;;18.20;99.90;;;;;;4155369;28;20038;-63
2023/07/02 05:01:36;;;;;;;26.67;13.05;;;18.20;99.90;;;;;;4149664;28;20440;-62
2023/07/02 05:03:38;;;;;;;24.60;12.50;;;18.20;99.90;;;;;;4150401;28;20034;-62
2023/07/02 05:05:39;;;;;;;23.02;12.77;;;18.20;99.90;;;;;;4157856;28;20021;-62
2023/07/02 05:07:40;;;;;;;24.35;12.93;;;18.20;99.90;;;;;;4157473;28;21977;-62
2023/07/02 05:09:41;;;;;;;27.67;13.40;;;18.20;99.90;;;;;;4163790;28;20379;-63
2023/07/02 05:11:41;;;;;;;22.42;12.30;;;18.20;99.90;;;;;;4170597;28;20053;-63
2023/07/02 05:13:42;;;;;;;19.52;11.35;;;18.30;99.90;;;;;;4168973;28;20570;-63
2023/07/02 05:15:43;;;;;;;23.70;12.98;;;18.30;99.90;;;;;;4168185;28;20049;-63
2023/07/02 05:17:43;;;;;;;28.02;13.43;;;18.30;99.90;;;;;;4171210;28;20082;-63
2023/07/02 05:19:44;;;;;;;28.13;13.32;;;18.30;99.90;;;;;;4168446;28;20030;-62
2023/07/02 05:21:44;;;;;;;24.73;13.32;;;18.40;99.90;;;;;;4168931;28;20061;-62
2023/07/02 05:23:45;;;;;;;28.63;13.85;;;18.40;99.90;;;;;;4172452;28;20108;-63
2023/07/02 05:25:46;;;;;;;30.08;13.48;;;18.40;99.90;;;;;;4156267;28;20069;-63
2023/07/02 05:27:46;;;;;;;31.20;14.30;;;18.40;99.90;;;;;;4160752;28;20040;-63
2023/07/02 05:29:47;;;;;;;22.77;12.85;;;18.40;99.90;;;;;;4165401;28;20571;-63
2023/07/02 05:31:47;;;;;;;26.85;13.23;;;18.50;99.90;;;;;;4168016;28;20029;-63
2023/07/02 05:33:48;;;;;;;27.67;13.45;;;18.50;99.90;;;;;;4170750;28;20032;-63
2023/07/02 05:35:49;;;;;;;29.40;15.50;;;18.50;99.90;;;;;;4178001;28;20033;-62
2023/07/02 05:37:49;;;;;;;24.05;13.35;;;18.50;99.90;;;;;;4179196;28;20040;-63
2023/07/02 05:39:50;;;;;;;25.80;13.52;;;18.50;99.90;;;;;;4179597;28;20045;-63
2023/07/02 05:41:50;;;;;;;23.55;12.52;;;18.50;99.90;;;;;;4170448;28;20025;-63
2023/07/02 05:43:51;;;;;;;23.90;12.55;;;18.60;99.90;;;;;;4182477;28;20478;-65
2023/07/02 05:45:52;;;;;;;24.38;12.50;;;18.70;99.90;;;;;;4176614;28;20044;-63
2023/07/02 05:47:52;;;;;;;23.80;12.15;;;18.70;99.90;;;;;;4180303;28;20092;-63
2023/07/02 05:49:53;;;;;;;25.00;13.38;;;18.80;99.90;;;;;;4176475;28;20037;-63
2023/07/02 05:51:54;;;;;;;28.67;12.38;;;18.90;99.90;;;;;;4175618;28;20045;-64
2023/07/02 05:53:54;;;;;;;26.55;13.75;;;19.10;99.90;;;;;;4165072;28;20037;-63
2023/07/02 05:55:55;;;;;;;26.90;13.57;;;19.30;99.90;;;;;;4176246;28;20044;-63
2023/07/02 05:58:01;;;;;;;28.88;13.85;;;19.40;99.90;;;;;;4176517;28;20033;-63
2023/07/02 06:00:02;;;;;;;26.95;13.18;;;19.50;99.90;;;;;;4172665;28;20419;-63
2023/07/02 06:02:03;;;;;;;25.33;13.15;;;19.60;99.90;;;;;;4157445;28;20087;-63
2023/07/02 06:04:03;;;;;;;30.73;14.02;;;19.80;99.90;;;;;;4174038;28;20029;-63
2023/07/02 06:06:04;;;;;;;25.05;13.43;;;20.00;99.90;;;;;;4173332;28;20112;-63
2023/07/02 06:08:04;;;;;;;27.33;13.63;;;20.20;99.90;;;;;;4176171;28;20033;-63
2023/07/02 06:10:05;;;;;;;21.77;11.40;;;20.30;99.90;;;;;;4175759;28;20033;-65
2023/07/02 06:12:06;;;;;;;26.05;12.82;;;20.60;99.90;;;;;;4177659;28;20059;-63
2023/07/02 06:14:07;;;;;;;21.02;12.05;;;20.70;99.90;;;;;;4186286;28;20074;-63
2023/07/02 06:16:07;;;;;;;24.45;11.35;;;21.00;99.90;;;;;;4180083;28;20545;-63
2023/07/02 06:18:08;;;;;;;28.75;14.18;;;21.20;99.90;;;;;;4154839;28;20033;-64
2023/07/02 06:20:09;;;;;;;22.35;11.80;;;21.10;99.90;;;;;;4173378;28;20152;-64
2023/07/02 06:22:10;;;;;;;22.25;11.38;;;21.10;99.90;;;;;;4169671;28;20044;-63
2023/07/02 06:24:10;;;;;;;22.30;11.75;;;21.20;99.90;;;;;;4179687;28;20116;-63
2023/07/02 06:26:11;;;;;;;22.63;11.68;;;21.20;99.90;;;;;;4178225;28;20037;-63
2023/07/02 06:28:12;;;;;;;26.20;12.13;;;21.20;99.90;;;;;;4154382;28;20033;-66
2023/07/02 06:30:12;;;;;;;24.90;11.30;;;21.20;99.90;;;;;;4175095;28;20037;-64
2023/07/02 06:32:13;;;;;;;20.45;10.02;;;21.10;99.90;;;;;;4169169;28;20429;-64
2023/07/02 06:34:14;;;;;;;20.42;10.70;;;21.00;99.90;;;;;;4169346;28;20037;-64
2023/07/02 06:36:15;;;;;;;24.60;9.75;;;20.90;99.90;;;;;;4174628;28;20037;-64
2023/07/02 06:38:15;;;;;;;19.95;10.30;;;20.90;99.90;;;;;;4177200;28;20481;-63
2023/07/02 06:40:16;;;;;;;24.48;11.23;;;21.00;99.90;;;;;;4178178;28;20554;-63
2023/07/02 06:42:16;;;;;;;24.98;11.77;;;20.90;99.90;;;;;;4154887;28;20100;-63
2023/07/02 06:44:17;;;;;;;22.70;10.68;;;20.80;99.90;;;;;;4175298;28;20041;-63
2023/07/02 06:46:18;;;;;;;25.23;12.18;;;20.80;99.90;;;;;;4172899;28;20110;-64
2023/07/02 06:48:21;;;;;;;21.50;11.23;;;20.70;99.90;;;;;;4173934;28;20037;-64
2023/07/02 06:50:22;;;;;;;20.83;10.40;;;20.70;99.90;;;;;;4158391;28;20041;-64
2023/07/02 06:52:23;;;;;;;22.85;10.77;;;20.70;99.90;;;;;;4177749;28;20495;-66
2023/07/02 06:54:23;;;;;;;17.10;9.00;;;20.70;99.90;;;;;;4171212;28;20040;-64
2023/07/02 06:56:24;;;;;;;20.58;9.48;;;20.60;99.90;;;;;;4172108;28;20055;-64
2023/07/02 06:58:25;;;;;;;16.58;9.25;;;20.60;99.90;;;;;;4172193;28;20869;-64
2023/07/02 07:00:25;;;;;;;23.77;9.80;;;20.70;99.90;;;;;;4170328;28;20999;-64
2023/07/02 07:02:27;;;;;;;21.83;10.05;;;20.60;99.90;;;;;;4171557;28;20032;-64
2023/07/02 07:04:28;;;;;;;18.45;8.85;;;20.60;99.90;;;;;;4168875;28;20698;-64
2023/07/02 07:06:29;;;;;;;18.75;9.20;;;20.70;99.90;;;;;;4172786;28;20198;-63
2023/07/02 07:08:30;;;;;;;18.95;8.88;;;20.70;99.90;;;;;;4171420;28;20516;-63
2023/07/02 07:10:34;;;;;;;19.02;9.43;;;20.70;99.90;;;;;;4172871;28;20040;-64
2023/07/02 07:12:34;;;;;;;19.65;8.57;;;20.70;99.90;;;;;;4161253;28;20030;-64
2023/07/02 07:14:35;;;;;;;23.23;9.85;;;20.70;99.90;;;;;;4170736;28;20496;-63
2023/07/02 07:16:36;;;;;;;24.05;9.27;;;20.60;99.90;;;;;;4158838;28;20067;-63
2023/07/02 07:18:36;;;;;;;23.40;10.20;;;20.60;99.90;;;;;;4179743;28;20054;-63
2023/07/02 07:20:40;;;;;;;18.83;8.70;;;20.60;99.90;;;;;;4169739;28;20104;-64
2023/07/02 07:22:40;;;;;;;21.05;10.13;;;20.70;99.90;;;;;;4169118;28;20051;-64
2023/07/02 07:24:42;;;;;;;19.45;8.75;;;20.70;99.90;;;;;;4169442;28;20056;-64
2023/07/02 07:26:42;;;;;;;17.40;9.18;;;20.60;99.90;;;;;;4175836;28;20029;-68
2023/07/02 07:28:43;;;;;;;15.57;8.20;;;20.70;99.90;;;;;;4172128;28;20033;-64
2023/07/02 07:30:44;;;;;;;25.35;10.07;;;20.80;99.90;;;;;;4172237;28;20025;-64
2023/07/02 07:32:44;;;;;;;19.83;9.43;;;20.80;99.90;;;;;;4176722;28;20519;-65
2023/07/02 07:34:45;;;;;;;20.15;9.82;;;20.90;99.90;;;;;;4172993;28;20039;-64
2023/07/02 07:36:46;;;;;;;19.83;8.75;;;20.90;99.90;;;;;;4168679;28;20067;-64
2023/07/02 07:38:46;;;;;;;18.60;8.68;;;20.90;99.90;;;;;;4176800;28;20037;-64
2023/07/02 07:40:47;;;;;;;20.05;8.65;;;20.90;99.90;;;;;;4167563;28;20468;-63
2023/07/02 07:42:47;;;;;;;13.50;7.25;;;20.90;99.90;;;;;;4186149;28;20092;-64
2023/07/02 07:44:48;;;;;;;17.92;8.43;;;20.80;99.90;;;;;;4176573;28;20044;-63
2023/07/02 07:46:49;;;;;;;21.98;8.27;;;20.80;99.90;;;;;;4179736;28;20036;-64
2023/07/02 07:48:49;;;;;;;19.67;8.25;;;20.80;99.90;;;;;;4184403;28;20401;-64
2023/07/02 07:50:50;;;;;;;16.25;7.75;;;20.80;99.90;;;;;;4181069;28;20365;-63
2023/07/02 07:52:51;;;;;;;18.63;8.23;;;20.80;99.90;;;;;;4183110;28;20484;-64
2023/07/02 07:54:51;;;;;;;14.10;7.22;;;20.80;99.90;;;;;;4180130;28;20514;-64
2023/07/02 07:56:52;;;;;;;14.50;7.03;;;20.80;99.90;;;;;;4180493;28;20029;-64
2023/07/02 07:58:53;;;;;;;17.15;7.90;;;20.90;99.90;;;;;;4175996;28;20034;-63
2023/07/02 08:00:53;;;;;;;16.63;7.13;;;20.90;99.90;;;;;;4178196;28;20067;-63
2023/07/02 08:02:55;;;;;;;18.10;7.95;;;20.90;99.90;;;;;;4155456;28;20436;-64
2023/07/02 08:04:56;;;;;;;15.97;6.93;;;20.90;99.90;;;;;;4177776;28;20064;-64
2023/07/02 08:06:56;;;;;;;14.77;6.80;;;20.90;99.90;;;;;;4170226;28;20076;-64
2023/07/02 08:08:57;;;;;;;16.20;6.93;;;20.80;98.80;;;;;;4177961;28;20032;-63
2023/07/02 08:10:58;;;;;;;13.52;6.25;;;20.70;98.60;;;;;;4174548;28;20074;-64
2023/07/02 08:12:58;;;;;;;13.57;6.93;;;20.70;98.70;;;;;;4175546;28;20033;-64
2023/07/02 08:14:59;;;;;;;13.85;6.90;;;20.70;98.90;;;;;;4171326;28;20075;-64
2023/07/02 08:16:59;;;;;;;12.95;6.55;;;20.70;99.40;;;;;;4174852;28;20044;-63
2023/07/02 08:19:01;;;;;;;12.52;6.25;;;20.80;98.70;;;;;;4165577;28;20033;-63
2023/07/02 08:21:02;;;;;;;18.07;6.93;;;20.80;98.40;;;;;;4169518;28;20098;-64
2023/07/02 08:23:03;;;;;;;12.90;6.22;;;20.80;98.50;;;;;;4173503;28;20104;-63
2023/07/02 08:25:04;;;;;;;15.40;6.82;;;20.80;97.60;;;;;;4172265;28;20036;-64
2023/07/02 08:27:05;;;;;;;11.23;5.88;;;20.90;98.20;;;;;;4172437;28;20496;-63
2023/07/02 08:29:06;;;;;;;17.15;6.95;;;20.90;98.20;;;;;;4170399;28;20446;-63
2023/07/02 08:31:06;;;;;;;12.70;6.25;;;21.00;99.90;;;;;;4179718;28;20095;-63
2023/07/02 08:33:07;;;;;;;15.70;7.20;;;21.10;99.00;;;;;;4186695;28;20123;-64
2023/07/02 08:35:08;;;;;;;13.75;6.22;;;21.10;97.30;;;;;;4178734;28;20037;-65
2023/07/02 08:37:09;;;;;;;16.60;6.93;;;21.20;99.30;;;;;;4183431;28;20436;-64
2023/07/02 08:39:10;;;;;;;12.77;6.97;;;21.30;98.80;;;;;;4171685;28;20037;-64
2023/07/02 08:41:12;;;;;;;14.05;6.97;;;21.40;98.80;;;;;;4156993;28;20099;-64
2023/07/02 08:43:12;;;;;;;15.52;6.47;;;21.60;98.30;;;;;;4174981;28;20443;-64
2023/07/02 08:45:16;;;;;;;13.07;6.93;;;21.60;97.50;;;;;;4174205;28;20025;-64
2023/07/02 08:47:17;;;;;;;12.40;6.45;;;21.60;97.70;;;;;;4172621;28;20042;-64
2023/07/02 08:49:17;;;;;;;17.08;6.35;;;21.70;98.70;;;;;;4172459;28;20585;-64
2023/07/02 08:51:18;;;;;;;14.50;6.53;;;21.70;97.80;;;;;;4181638;28;20067;-64
2023/07/02 08:53:19;;;;;;;17.67;7.05;;;21.60;97.40;;;;;;4182662;28;20035;-64
2023/07/02 08:55:19;;;;;;;16.63;7.22;;;21.60;98.80;;;;;;4175991;28;20173;-64
2023/07/02 08:57:21;;;;;;;16.08;7.55;;;21.50;97.40;;;;;;4181081;28;20045;-64
2023/07/02 08:59:21;;;;;;;18.70;6.93;;;21.50;97.80;;;;;;4159188;28;20029;-63
2023/07/02 09:01:22;;;;;;;17.85;7.43;;;21.50;98.80;;;;;;4173511;28;20531;-65
2023/07/02 09:03:25;;;;;;;16.27;6.93;;;21.50;97.40;;;;;;4169639;28;20049;-64
2023/07/02 09:05:26;;;;;;;19.48;7.43;;;21.50;99.50;;;;;;4171180;28;20938;-65
2023/07/02 09:07:26;;;;;;;17.83;7.40;;;21.60;99.90;;;;;;4180934;28;20091;-64
2023/07/02 09:09:27;;;;;;;17.83;7.55;;;21.70;98.30;;;;;;4183367;28;20488;-64
2023/07/02 09:11:28;;;;;;;17.63;7.75;;;21.80;99.70;;;;;;4185233;28;20044;-64
2023/07/02 09:13:28;;;;;;;15.90;7.28;;;21.90;97.60;;;;;;4185161;28;20465;-64
2023/07/02 09:15:38;;;;;;;16.00;7.63;;;21.90;97.10;;;;;;4172151;28;20596;-64
2023/07/02 09:17:39;;;;;;;17.45;6.82;;;21.80;98.40;;;;;;4178955;28;20065;-64
2023/07/02 09:19:50;;;;;;;15.63;7.13;;;21.80;96.40;;;;;;4176218;28;20032;-64
2023/07/02 09:21:51;;;;;;;16.02;7.25;;;21.60;96.80;;;;;;4186115;28;20115;-64
2023/07/02 09:23:52;;;;;;;13.52;6.78;;;21.50;95.70;;;;;;4168996;28;20543;-64
2023/07/02 09:25:55;;;;;;;14.00;6.28;;;21.40;96.50;;;;;;4167641;28;20033;-63
2023/07/02 09:27:56;;;;;;;12.55;6.20;;;21.30;96.70;;;;;;4173234;28;20476;-66
2023/07/02 09:29:57;;;;;;;12.35;6.25;;;21.20;97.10;;;;;;4178336;28;20098;-64
2023/07/02 09:32:02;;;;;;;14.55;6.53;;;21.20;95.40;;;;;;4166427;28;20116;-64
2023/07/02 09:34:03;;;;;;;14.07;6.85;;;21.00;96.90;;;;;;4181052;28;20487;-63
2023/07/02 09:36:05;;;;;;;13.82;5.65;;;21.00;94.80;;;;;;4185408;28;20052;-64
2023/07/02 09:38:06;;;;;;;13.13;6.05;;;20.90;96.10;;;;;;4173725;28;20041;-64
2023/07/02 09:40:08;;;;;;;17.00;5.85;;;20.90;96.30;;;;;;4172221;28;20498;-63
2023/07/02 09:42:10;;;;;;;14.05;6.03;;;20.90;95.00;;;;;;4174275;28;20037;-63
2023/07/02 09:44:13;;;;;;;12.67;6.30;;;20.90;95.30;;;;;;4171341;28;20033;-64
2023/07/02 09:46:13;;;;;;;10.95;5.68;;;20.90;97.00;;;;;;4175821;28;20329;-64
2023/07/02 09:48:15;;;;;;;13.68;5.97;;;21.00;97.90;;;;;;4173820;28;20032;-63
2023/07/02 09:50:19;;;;;;;12.00;5.63;;;21.00;96.40;;;;;;4167610;28;20233;-64
2023/07/02 09:52:19;;;;;;;10.43;5.63;;;21.10;97.30;;;;;;4172875;28;20377;-63
2023/07/02 09:54:20;;;;;;;11.65;5.75;;;21.20;96.80;;;;;;4171740;28;20048;-64
2023/07/02 09:56:21;;;;;;;11.15;5.55;;;21.30;95.50;;;;;;4156653;28;20064;-64
2023/07/02 09:58:22;;;;;;;11.63;5.65;;;21.40;94.80;;;;;;4171161;28;20403;-64
2023/07/02 10:00:22;;;;;;;15.38;6.47;;;21.50;95.40;;;;;;4159626;28;20495;-64
2023/07/02 10:02:23;;;;;;;11.55;6.10;;;21.60;95.80;;;;;;4158691;28;20034;-63
2023/07/02 10:04:24;;;;;;;19.92;7.40;;;21.70;95.70;;;;;;4154611;28;20156;-64
2023/07/02 10:06:24;;;;;;;11.02;5.72;;;21.80;96.20;;;;;;4159184;28;20033;-64
2023/07/02 10:08:30;;;;;;;13.32;6.13;;;22.00;97.20;;;;;;4156805;28;20029;-64
2023/07/02 10:10:31;;;;;;;13.25;6.25;;;22.10;97.40;;;;;;4151068;28;21005;-64
2023/07/02 10:12:32;;;;;;;12.75;6.10;;;22.30;95.70;;;;;;4155456;28;20029;-64
2023/07/02 10:14:43;;;;;;;12.23;5.70;;;22.30;97.30;;;;;;4155998;28;20048;-64
2023/07/02 10:16:51;;;;;;;13.70;6.57;;;22.40;96.20;;;;;;4160139;28;20062;-64
2023/07/02 10:18:52;;;;;;;13.68;6.53;;;22.40;96.50;;;;;;4157909;28;20436;-63
2023/07/02 10:20:52;;;;;;;13.95;6.05;;;22.40;96.60;;;;;;4156505;28;20037;-64